Terminal Aerodrome Forecast
Issued by NWS

Home | Current Version | Previous Version | Text Only | Print | Product List | Glossary On
Versions: 1 2 3 4 5 6 7 8 9 10 11 12 13 14 15
000
FTUS45 KTFX 242300
TAFHVR
TAF
KHVR 242338Z 2500/2524 29008KT P6SM BKN120
     FM250400 22015KT P6SM SCT050 BKN070
     FM250900 32011KT P6SM SCT030 OVC050 PROB30 2510/2515 3SM -SN BR
      OVC020
     FM251600 28008KT P6SM SCT050 BKN070
     FM252300 30015KT P6SM -SN SCT025 OVC040=

USA.gov is the U.S. government's official web portal to all federal, state and local government web resources and services.